sensor_id;sensor_type;location;lat;lon;timestamp;pressure;altitude;pressure_sealevel;temperature;humidity
34921;BME280;21128;50.016;20.002;2023-04-15T00:02:14;97599.09;;;10.28;69.23
34921;BME280;21128;50.016;20.002;2023-04-15T00:04:41;97601.08;;;10.26;69.41
34921;BME280;21128;50.016;20.002;2023-04-15T00:07:08;97605.48;;;10.25;69.77
34921;BME280;21128;50.016;20.002;2023-04-15T00:09:35;97606.47;;;10.24;69.66
34921;BME280;21128;50.016;20.002;2023-04-15T00:12:03;97606.78;;;10.21;69.74
34921;BME280;21128;50.016;20.002;2023-04-15T00:14:30;97607.78;;;10.20;69.36
34921;BME280;21128;50.016;20.002;2023-04-15T00:16:57;97605.47;;;10.17;69.22
34921;BME280;21128;50.016;20.002;2023-04-15T00:19:24;97614.34;;;10.16;69.35
34921;BME280;21128;50.016;20.002;2023-04-15T00:21:51;97615.68;;;10.12;69.11
34921;BME280;21128;50.016;20.002;2023-04-15T00:24:18;97615.18;;;10.08;69.39
34921;BME280;21128;50.016;20.002;2023-04-15T00:26:45;97615.35;;;10.07;69.18
34921;BME280;21128;50.016;20.002;2023-04-15T00:29:12;97605.03;;;10.05;69.66
34921;BME280;21128;50.016;20.002;2023-04-15T00:31:40;97601.77;;;10.03;69.42
34921;BME280;21128;50.016;20.002;2023-04-15T00:34:07;97600.95;;;10.03;69.33
34921;BME280;21128;50.016;20.002;2023-04-15T00:36:35;97602.75;;;10.02;69.16
34921;BME280;21128;50.016;20.002;2023-04-15T00:39:02;97602.93;;;10.01;69.55
34921;BME280;21128;50.016;20.002;2023-04-15T00:41:29;97595.88;;;10.01;69.28
34921;BME280;21128;50.016;20.002;2023-04-15T00:43:57;97593.25;;;10.01;69.05
34921;BME280;21128;50.016;20.002;2023-04-15T00:46:26;97589.95;;;9.99;68.97
34921;BME280;21128;50.016;20.002;2023-04-15T00:48:54;97585.69;;;9.98;69.10
34921;BME280;21128;50.016;20.002;2023-04-15T00:51:21;97584.87;;;9.98;69.34
34921;BME280;21128;50.016;20.002;2023-04-15T00:53:49;97591.11;;;9.97;69.67
34921;BME280;21128;50.016;20.002;2023-04-15T00:56:19;97598.98;;;9.97;69.24
34921;BME280;21128;50.016;20.002;2023-04-15T00:58:50;97599.16;;;9.95;69.50
34921;BME280;21128;50.016;20.002;2023-04-15T01:01:20;97606.39;;;9.93;69.59
34921;BME280;21128;50.016;20.002;2023-04-15T01:03:49;97612.45;;;9.94;69.35
34921;BME280;21128;50.016;20.002;2023-04-15T01:06:17;97609.16;;;9.92;69.50
34921;BME280;21128;50.016;20.002;2023-04-15T01:08:44;97614.58;;;9.90;69.87
34921;BME280;21128;50.016;20.002;2023-04-15T01:11:11;97611.31;;;9.88;69.29
34921;BME280;21128;50.016;20.002;2023-04-15T01:13:39;97614.11;;;9.86;69.52
34921;BME280;21128;50.016;20.002;2023-04-15T01:16:07;97610.66;;;9.86;69.53
34921;BME280;21128;50.016;20.002;2023-04-15T01:18:38;97616.08;;;9.84;69.61
34921;BME280;21128;50.016;20.002;2023-04-15T01:21:05;97623.95;;;9.84;69.48
34921;BME280;21128;50.016;20.002;2023-04-15T01:23:35;97630.16;;;9.83;69.63
34921;BME280;21128;50.016;20.002;2023-04-15T01:26:05;97632.78;;;9.83;69.62
34921;BME280;21128;50.016;20.002;2023-04-15T01:28:35;97636.40;;;9.82;69.81
34921;BME280;21128;50.016;20.002;2023-04-15T01:31:11;97625.26;;;9.80;69.44
34921;BME280;21128;50.016;20.002;2023-04-15T01:33:41;97619.20;;;9.80;69.57
34921;BME280;21128;50.016;20.002;2023-04-15T01:36:09;97626.25;;;9.79;69.63
34921;BME280;21128;50.016;20.002;2023-04-15T01:38:37;97628.05;;;9.79;69.51
34921;BME280;21128;50.016;20.002;2023-04-15T01:41:04;97619.36;;;9.78;69.92
34921;BME280;21128;50.016;20.002;2023-04-15T01:43:34;97625.60;;;9.77;69.25
34921;BME280;21128;50.016;20.002;2023-04-15T01:46:02;97621.17;;;9.78;69.62
34921;BME280;21128;50.016;20.002;2023-04-15T01:48:30;97617.09;;;9.75;69.59
34921;BME280;21128;50.016;20.002;2023-04-15T01:50:58;97618.05;;;9.74;69.54
34921;BME280;21128;50.016;20.002;2023-04-15T01:53:25;97618.05;;;9.74;69.67
34921;BME280;21128;50.016;20.002;2023-04-15T01:55:52;97626.09;;;9.73;69.19
34921;BME280;21128;50.016;20.002;2023-04-15T01:58:19;97637.39;;;9.73;69.50
34921;BME280;21128;50.016;20.002;2023-04-15T02:00:46;97639.38;;;9.71;69.61
34921;BME280;21128;50.016;20.002;2023-04-15T02:03:13;97643.16;;;9.69;69.07
34921;BME280;21128;50.016;20.002;2023-04-15T02:05:40;97639.04;;;9.66;69.97
34921;BME280;21128;50.016;20.002;2023-04-15T02:08:08;97644.45;;;9.65;69.50
34921;BME280;21128;50.016;20.002;2023-04-15T02:10:35;97633.48;;;9.61;69.42
34921;BME280;21128;50.016;20.002;2023-04-15T02:13:02;97649.53;;;9.58;69.47
34921;BME280;21128;50.016;20.002;2023-04-15T02:15:29;97647.25;;;9.55;69.53
34921;BME280;21128;50.016;20.002;2023-04-15T02:17:56;97645.78;;;9.52;70.12
34921;BME280;21128;50.016;20.002;2023-04-15T02:20:24;97641.67;;;9.50;69.78
34921;BME280;21128;50.016;20.002;2023-04-15T02:22:52;97647.25;;;9.47;69.72
34921;BME280;21128;50.016;20.002;2023-04-15T02:25:19;97648.41;;;9.44;70.09
34921;BME280;21128;50.016;20.002;2023-04-15T02:27:46;97657.56;;;9.40;70.07
34921;BME280;21128;50.016;20.002;2023-04-15T02:30:13;97659.70;;;9.37;70.11
34921;BME280;21128;50.016;20.002;2023-04-15T02:32:40;97661.68;;;9.35;69.97
34921;BME280;21128;50.016;20.002;2023-04-15T02:35:09;97667.91;;;9.34;70.09
34921;BME280;21128;50.016;20.002;2023-04-15T02:37:36;97673.16;;;9.34;69.97
34921;BME280;21128;50.016;20.002;2023-04-15T02:40:09;97661.00;;;9.33;70.57
34921;BME280;21128;50.016;20.002;2023-04-15T02:42:40;97661.34;;;9.29;70.82
34921;BME280;21128;50.016;20.002;2023-04-15T02:45:08;97659.70;;;9.28;70.87
34921;BME280;21128;50.016;20.002;2023-04-15T02:47:35;97654.63;;;9.27;70.85
34921;BME280;21128;50.016;20.002;2023-04-15T02:50:02;97652.98;;;9.26;70.43
34921;BME280;21128;50.016;20.002;2023-04-15T02:52:29;97656.59;;;9.25;70.21
34921;BME280;21128;50.016;20.002;2023-04-15T02:54:57;97648.88;;;9.23;70.20
34921;BME280;21128;50.016;20.002;2023-04-15T02:57:27;97656.91;;;9.22;70.34
34921;BME280;21128;50.016;20.002;2023-04-15T02:59:55;97662.31;;;9.20;69.72
34921;BME280;21128;50.016;20.002;2023-04-15T03:05:27;97659.34;;;9.15;70.41
34921;BME280;21128;50.016;20.002;2023-04-15T03:07:54;97669.17;;;9.13;69.95
34921;BME280;21128;50.016;20.002;2023-04-15T03:10:21;97665.09;;;9.11;69.90
34921;BME280;21128;50.016;20.002;2023-04-15T03:12:48;97667.70;;;9.11;70.41
34921;BME280;21128;50.016;20.002;2023-04-15T03:15:15;97662.77;;;9.08;70.58
34921;BME280;21128;50.016;20.002;2023-04-15T03:17:42;97667.36;;;9.06;70.60
34921;BME280;21128;50.016;20.002;2023-04-15T03:20:10;97671.46;;;9.00;70.66
34921;BME280;21128;50.016;20.002;2023-04-15T03:22:37;97672.09;;;8.94;71.07
34921;BME280;21128;50.016;20.002;2023-04-15T03:25:04;97670.76;;;8.90;71.53
34921;BME280;21128;50.016;20.002;2023-04-15T03:27:31;97683.37;;;8.86;71.73
34921;BME280;21128;50.016;20.002;2023-04-15T03:29:58;97682.72;;;8.84;71.44
34921;BME280;21128;50.016;20.002;2023-04-15T03:32:26;97686.45;;;8.82;71.59
34921;BME280;21128;50.016;20.002;2023-04-15T03:34:53;97686.61;;;8.80;71.57
34921;BME280;21128;50.016;20.002;2023-04-15T03:37:20;97681.53;;;8.79;71.24
34921;BME280;21128;50.016;20.002;2023-04-15T03:39:47;97682.69;;;8.76;72.02
34921;BME280;21128;50.016;20.002;2023-04-15T03:42:14;97687.73;;;8.69;72.11
34921;BME280;21128;50.016;20.002;2023-04-15T03:44:41;97695.55;;;8.61;72.27
34921;BME280;21128;50.016;20.002;2023-04-15T03:47:08;97706.31;;;8.50;72.98
34921;BME280;21128;50.016;20.002;2023-04-15T03:49:35;97711.34;;;8.43;73.00
34921;BME280;21128;50.016;20.002;2023-04-15T03:52:02;97710.33;;;8.36;73.56
34921;BME280;21128;50.016;20.002;2023-04-15T03:54:30;97707.63;;;8.28;72.97
34921;BME280;21128;50.016;20.002;2023-04-15T03:56:57;97726.39;;;8.24;74.27
34921;BME280;21128;50.016;20.002;2023-04-15T03:59:24;97726.39;;;8.24;74.97
34921;BME280;21128;50.016;20.002;2023-04-15T04:01:51;97730.81;;;8.23;74.50
34921;BME280;21128;50.016;20.002;2023-04-15T04:04:18;97737.19;;;8.21;74.58
34921;BME280;21128;50.016;20.002;2023-04-15T04:06:45;97746.83;;;8.20;75.30
34921;BME280;21128;50.016;20.002;2023-04-15T04:09:12;97751.56;;;8.16;75.76
34921;BME280;21128;50.016;20.002;2023-04-15T04:11:39;97744.16;;;8.12;75.78
34921;BME280;21128;50.016;20.002;2023-04-15T04:14:06;97745.30;;;8.09;76.22
34921;BME280;21128;50.016;20.002;2023-04-15T04:16:33;97740.88;;;8.10;75.94
34921;BME280;21128;50.016;20.002;2023-04-15T04:18:59;97743.34;;;8.11;76.27
34921;BME280;21128;50.016;20.002;2023-04-15T04:21:27;97751.34;;;8.10;77.10
34921;BME280;21128;50.016;20.002;2023-04-15T04:23:54;97751.03;;;8.13;76.98
34921;BME280;21128;50.016;20.002;2023-04-15T04:26:22;97749.08;;;8.15;77.39
34921;BME280;21128;50.016;20.002;2023-04-15T04:28:49;97748.12;;;8.16;76.77
34921;BME280;21128;50.016;20.002;2023-04-15T04:31:16;97750.59;;;8.17;77.84
34921;BME280;21128;50.016;20.002;2023-04-15T04:33:43;97748.47;;;8.21;78.12
34921;BME280;21128;50.016;20.002;2023-04-15T04:36:10;97745.70;;;8.23;78.02
34921;BME280;21128;50.016;20.002;2023-04-15T04:38:37;97745.56;;;8.24;77.90
34921;BME280;21128;50.016;20.002;2023-04-15T04:41:04;97747.33;;;8.24;78.18
34921;BME280;21128;50.016;20.002;2023-04-15T04:43:31;97750.11;;;8.22;78.51
34921;BME280;21128;50.016;20.002;2023-04-15T04:45:58;97744.05;;;8.22;77.68
34921;BME280;21128;50.016;20.002;2023-04-15T04:48:25;97749.00;;;8.25;77.62
34921;BME280;21128;50.016;20.002;2023-04-15T04:50:52;97753.31;;;8.34;78.23
34921;BME280;21128;50.016;20.002;2023-04-15T04:53:20;97758.26;;;8.37;77.47
34921;BME280;21128;50.016;20.002;2023-04-15T04:55:47;97756.30;;;8.39;77.27
34921;BME280;21128;50.016;20.002;2023-04-15T04:58:14;97754.38;;;8.41;77.68
34921;BME280;21128;50.016;20.002;2023-04-15T05:00:41;97759.45;;;8.42;78.11
34921;BME280;21128;50.016;20.002;2023-04-15T05:03:08;97756.34;;;8.47;78.16
34921;BME280;21128;50.016;20.002;2023-04-15T05:05:35;97762.93;;;8.51;77.82
34921;BME280;21128;50.016;20.002;2023-04-15T05:08:05;97760.65;;;8.56;77.58
34921;BME280;21128;50.016;20.002;2023-04-15T05:10:32;97755.45;;;8.64;77.27
34921;BME280;21128;50.016;20.002;2023-04-15T05:12:59;97771.21;;;8.72;77.94
34921;BME280;21128;50.016;20.002;2023-04-15T05:15:26;97776.81;;;8.78;77.99
34921;BME280;21128;50.016;20.002;2023-04-15T05:17:53;97770.27;;;8.82;77.20
34921;BME280;21128;50.016;20.002;2023-04-15T05:20:20;97785.73;;;8.93;77.87
34921;BME280;21128;50.016;20.002;2023-04-15T05:22:47;97788.42;;;9.09;77.65
34921;BME280;21128;50.016;20.002;2023-04-15T05:25:14;97787.16;;;9.29;77.27
34921;BME280;21128;50.016;20.002;2023-04-15T05:27:42;97788.84;;;9.47;77.69
34921;BME280;21128;50.016;20.002;2023-04-15T05:30:09;97785.09;;;9.57;76.74
34921;BME280;21128;50.016;20.002;2023-04-15T05:32:36;97782.00;;;9.62;76.21
34921;BME280;21128;50.016;20.002;2023-04-15T05:35:03;97780.67;;;9.66;76.12
34921;BME280;21128;50.016;20.002;2023-04-15T05:37:30;97782.66;;;9.72;75.17
34921;BME280;21128;50.016;20.002;2023-04-15T05:39:57;97777.41;;;9.72;75.03
34921;BME280;21128;50.016;20.002;2023-04-15T05:42:24;97781.50;;;9.75;74.94
34921;BME280;21128;50.016;20.002;2023-04-15T05:44:51;97785.46;;;9.79;74.91
34921;BME280;21128;50.016;20.002;2023-04-15T05:47:18;97782.67;;;9.88;75.11
34921;BME280;21128;50.016;20.002;2023-04-15T05:49:45;97786.94;;;10.14;75.22
34921;BME280;21128;50.016;20.002;2023-04-15T05:52:12;97783.16;;;10.41;74.93
34921;BME280;21128;50.016;20.002;2023-04-15T05:54:39;97786.39;;;10.67;74.92
34921;BME280;21128;50.016;20.002;2023-04-15T05:57:06;97785.01;;;10.96;74.41
34921;BME280;21128;50.016;20.002;2023-04-15T05:59:34;97788.00;;;11.24;73.95
34921;BME280;21128;50.016;20.002;2023-04-15T06:02:01;97788.56;;;11.42;73.20
34921;BME280;21128;50.016;20.002;2023-04-15T06:04:28;97795.41;;;11.51;72.24
34921;BME280;21128;50.016;20.002;2023-04-15T06:06:55;97792.45;;;11.54;70.86
34921;BME280;21128;50.016;20.002;2023-04-15T06:09:22;97799.34;;;11.55;70.87
34921;BME280;21128;50.016;20.002;2023-04-15T06:11:50;97807.55;;;11.61;70.36
34921;BME280;21128;50.016;20.002;2023-04-15T06:14:17;97808.70;;;11.58;70.32
34921;BME280;21128;50.016;20.002;2023-04-15T06:16:44;97812.86;;;11.52;69.71
34921;BME280;21128;50.016;20.002;2023-04-15T06:19:11;97809.09;;;11.47;69.57
34921;BME280;21128;50.016;20.002;2023-04-15T06:21:38;97811.23;;;11.43;69.28
34921;BME280;21128;50.016;20.002;2023-04-15T06:24:06;97810.42;;;11.43;69.58
34921;BME280;21128;50.016;20.002;2023-04-15T06:26:33;97810.91;;;11.46;69.54
34921;BME280;21128;50.016;20.002;2023-04-15T06:29:00;97805.94;;;11.51;69.91
34921;BME280;21128;50.016;20.002;2023-04-15T06:31:26;97813.14;;;11.58;69.11
34921;BME280;21128;50.016;20.002;2023-04-15T06:33:53;97815.14;;;11.55;69.02
34921;BME280;21128;50.016;20.002;2023-04-15T06:36:21;97809.01;;;11.63;69.40
34921;BME280;21128;50.016;20.002;2023-04-15T06:38:47;97811.41;;;11.73;68.89
34921;BME280;21128;50.016;20.002;2023-04-15T06:41:14;97821.94;;;11.73;68.40
34921;BME280;21128;50.016;20.002;2023-04-15T06:43:42;97815.40;;;11.69;68.34
34921;BME280;21128;50.016;20.002;2023-04-15T06:46:09;97822.76;;;11.73;68.63
34921;BME280;21128;50.016;20.002;2023-04-15T06:48:36;97829.14;;;11.79;68.41
34921;BME280;21128;50.016;20.002;2023-04-15T06:51:03;97825.02;;;11.84;68.65
34921;BME280;21128;50.016;20.002;2023-04-15T06:53:30;97828.08;;;11.96;68.41
34921;BME280;21128;50.016;20.002;2023-04-15T06:55:57;97833.61;;;12.01;67.95
34921;BME280;21128;50.016;20.002;2023-04-15T06:58:24;97837.91;;;12.02;66.99
34921;BME280;21128;50.016;20.002;2023-04-15T07:00:52;97839.70;;;12.02;66.79
34921;BME280;21128;50.016;20.002;2023-04-15T07:03:19;97841.36;;;12.03;67.16
34921;BME280;21128;50.016;20.002;2023-04-15T07:05:45;97843.27;;;12.09;66.83
34921;BME280;21128;50.016;20.002;2023-04-15T07:08:12;97836.86;;;12.11;66.35
34921;BME280;21128;50.016;20.002;2023-04-15T07:10:40;97839.77;;;12.17;66.71
34921;BME280;21128;50.016;20.002;2023-04-15T07:13:07;97850.94;;;12.19;66.80
34921;BME280;21128;50.016;20.002;2023-04-15T07:15:34;97849.97;;;12.20;66.59
34921;BME280;21128;50.016;20.002;2023-04-15T07:18:01;97845.52;;;12.20;66.64
34921;BME280;21128;50.016;20.002;2023-04-15T07:20:29;97844.97;;;12.25;65.87
34921;BME280;21128;50.016;20.002;2023-04-15T07:22:56;97854.69;;;12.24;66.25
34921;BME280;21128;50.016;20.002;2023-04-15T07:25:23;97840.34;;;12.27;65.51
34921;BME280;21128;50.016;20.002;2023-04-15T07:27:51;97855.56;;;12.39;65.67
34921;BME280;21128;50.016;20.002;2023-04-15T07:30:18;97859.39;;;12.52;65.46
34921;BME280;21128;50.016;20.002;2023-04-15T07:32:45;97864.58;;;12.45;63.94
34921;BME280;21128;50.016;20.002;2023-04-15T07:35:12;97864.80;;;12.35;64.22
34921;BME280;21128;50.016;20.002;2023-04-15T07:37:40;97861.08;;;12.30;63.55
34921;BME280;21128;50.016;20.002;2023-04-15T07:40:09;97869.98;;;12.29;63.41
34921;BME280;21128;50.016;20.002;2023-04-15T07:42:36;97871.42;;;12.31;62.69
34921;BME280;21128;50.016;20.002;2023-04-15T07:45:04;97872.81;;;12.42;63.85
34921;BME280;21128;50.016;20.002;2023-04-15T07:47:31;97870.53;;;12.62;63.56
34921;BME280;21128;50.016;20.002;2023-04-15T07:49:58;97875.80;;;12.77;63.31
34921;BME280;21128;50.016;20.002;2023-04-15T07:52:25;97866.48;;;12.89;62.95
34921;BME280;21128;50.016;20.002;2023-04-15T07:54:53;97878.02;;;13.03;63.45
34921;BME280;21128;50.016;20.002;2023-04-15T07:57:19;97881.48;;;13.18;63.09
34921;BME280;21128;50.016;20.002;2023-04-15T07:59:46;97872.52;;;13.27;62.29
34921;BME280;21128;50.016;20.002;2023-04-15T08:02:13;97880.23;;;13.43;61.96
34921;BME280;21128;50.016;20.002;2023-04-15T08:04:41;97885.61;;;13.50;61.01
34921;BME280;21128;50.016;20.002;2023-04-15T08:07:08;97878.31;;;13.52;60.82
34921;BME280;21128;50.016;20.002;2023-04-15T08:09:36;97881.96;;;13.51;59.35
34921;BME280;21128;50.016;20.002;2023-04-15T08:12:03;97880.05;;;13.45;59.71
34921;BME280;21128;50.016;20.002;2023-04-15T08:14:30;97873.31;;;13.57;59.51
34921;BME280;21128;50.016;20.002;2023-04-15T08:16:57;97883.48;;;13.75;59.55
34921;BME280;21128;50.016;20.002;2023-04-15T08:19:24;97877.16;;;13.91;58.80
34921;BME280;21128;50.016;20.002;2023-04-15T08:21:51;97892.63;;;13.94;58.33
34921;BME280;21128;50.016;20.002;2023-04-15T08:24:18;97885.70;;;13.93;58.00
34921;BME280;21128;50.016;20.002;2023-04-15T08:26:45;97886.75;;;14.13;58.08
34921;BME280;21128;50.016;20.002;2023-04-15T08:29:12;97883.67;;;14.31;57.66
34921;BME280;21128;50.016;20.002;2023-04-15T08:31:39;97888.34;;;14.50;58.17
34921;BME280;21128;50.016;20.002;2023-04-15T08:34:06;97876.49;;;14.68;57.89
34921;BME280;21128;50.016;20.002;2023-04-15T08:36:34;97880.09;;;14.88;57.96
34921;BME280;21128;50.016;20.002;2023-04-15T08:39:01;97880.94;;;14.88;54.95
34921;BME280;21128;50.016;20.002;2023-04-15T08:41:38;97881.92;;;14.59;55.05
34921;BME280;21128;50.016;20.002;2023-04-15T08:44:06;97872.70;;;14.77;56.42
34921;BME280;21128;50.016;20.002;2023-04-15T08:46:33;97886.62;;;15.20;56.70
34921;BME280;21128;50.016;20.002;2023-04-15T08:49:03;97889.69;;;15.58;56.33
34921;BME280;21128;50.016;20.002;2023-04-15T08:51:31;97874.51;;;15.80;55.74
34921;BME280;21128;50.016;20.002;2023-04-15T08:53:58;97874.91;;;15.77;54.68
34921;BME280;21128;50.016;20.002;2023-04-15T08:56:26;97885.10;;;15.73;54.62
34921;BME280;21128;50.016;20.002;2023-04-15T08:58:54;97880.45;;;15.82;54.93
34921;BME280;21128;50.016;20.002;2023-04-15T09:01:21;97879.98;;;15.72;55.08
34921;BME280;21128;50.016;20.002;2023-04-15T09:03:48;97879.33;;;15.63;55.24
34921;BME280;21128;50.016;20.002;2023-04-15T09:06:21;97876.20;;;15.53;54.26
34921;BME280;21128;50.016;20.002;2023-04-15T09:08:49;97876.08;;;15.27;54.17
34921;BME280;21128;50.016;20.002;2023-04-15T09:11:16;97883.95;;;15.13;55.07
34921;BME280;21128;50.016;20.002;2023-04-15T09:13:44;97871.91;;;15.11;54.52
34921;BME280;21128;50.016;20.002;2023-04-15T09:16:12;97883.66;;;15.02;55.17
34921;BME280;21128;50.016;20.002;2023-04-15T09:18:40;97873.02;;;14.95;54.96
34921;BME280;21128;50.016;20.002;2023-04-15T09:21:09;97881.55;;;14.90;54.69
34921;BME280;21128;50.016;20.002;2023-04-15T09:23:39;97886.98;;;14.82;55.00
34921;BME280;21128;50.016;20.002;2023-04-15T09:26:06;97880.29;;;14.86;55.37
34921;BME280;21128;50.016;20.002;2023-04-15T09:28:40;97875.45;;;14.90;54.91
34921;BME280;21128;50.016;20.002;2023-04-15T09:31:08;97882.45;;;14.76;54.23
34921;BME280;21128;50.016;20.002;2023-04-15T09:33:53;97881.22;;;14.72;54.48
34921;BME280;21128;50.016;20.002;2023-04-15T09:36:22;97885.10;;;14.76;54.58
34921;BME280;21128;50.016;20.002;2023-04-15T09:38:58;97888.22;;;14.86;53.93
34921;BME280;21128;50.016;20.002;2023-04-15T09:41:27;97887.19;;;14.81;53.53
34921;BME280;21128;50.016;20.002;2023-04-15T09:43:54;97887.33;;;14.73;53.57
34921;BME280;21128;50.016;20.002;2023-04-15T09:46:40;97882.85;;;14.73;53.63
34921;BME280;21128;50.016;20.002;2023-04-15T09:49:08;97884.56;;;14.87;53.92
34921;BME280;21128;50.016;20.002;2023-04-15T09:51:36;97883.86;;;15.00;53.47
34921;BME280;21128;50.016;20.002;2023-04-15T09:54:04;97889.97;;;15.01;53.08
34921;BME280;21128;50.016;20.002;2023-04-15T09:56:34;97885.88;;;14.98;52.96
34921;BME280;21128;50.016;20.002;2023-04-15T09:59:07;97878.36;;;15.02;53.36
34921;BME280;21128;50.016;20.002;2023-04-15T10:01:35;97882.73;;;15.16;52.97
34921;BME280;21128;50.016;20.002;2023-04-15T10:04:03;97883.20;;;15.26;52.77
34921;BME280;21128;50.016;20.002;2023-04-15T10:06:31;97877.75;;;15.34;52.20
34921;BME280;21128;50.016;20.002;2023-04-15T10:08:58;97883.70;;;15.43;52.03
34921;BME280;21128;50.016;20.002;2023-04-15T10:11:29;97886.19;;;15.51;52.28
34921;BME280;21128;50.016;20.002;2023-04-15T10:13:56;97881.81;;;15.71;51.49
34921;BME280;21128;50.016;20.002;2023-04-15T10:16:26;97872.57;;;16.09;51.65
34921;BME280;21128;50.016;20.002;2023-04-15T10:18:55;97879.75;;;16.35;49.68
34921;BME280;21128;50.016;20.002;2023-04-15T10:21:24;97876.28;;;16.34;49.93
34921;BME280;21128;50.016;20.002;2023-04-15T10:23:51;97871.00;;;16.41;49.93
34921;BME280;21128;50.016;20.002;2023-04-15T10:26:18;97869.80;;;16.70;50.41
34921;BME280;21128;50.016;20.002;2023-04-15T10:28:46;97878.77;;;16.95;48.63
34921;BME280;21128;50.016;20.002;2023-04-15T10:31:14;97871.62;;;16.96;48.07
34921;BME280;21128;50.016;20.002;2023-04-15T10:33:43;97876.11;;;17.02;47.72
34921;BME280;21128;50.016;20.002;2023-04-15T10:36:10;97872.85;;;16.80;48.20
34921;BME280;21128;50.016;20.002;2023-04-15T10:38:40;97874.69;;;16.79;47.63
34921;BME280;21128;50.016;20.002;2023-04-15T10:41:19;97880.00;;;16.93;47.22
34921;BME280;21128;50.016;20.002;2023-04-15T10:44:03;97871.62;;;16.96;46.89
34921;BME280;21128;50.016;20.002;2023-04-15T10:46:41;97872.81;;;17.06;46.57
34921;BME280;21128;50.016;20.002;2023-04-15T10:49:15;97874.21;;;17.29;45.70
34921;BME280;21128;50.016;20.002;2023-04-15T10:51:45;97886.46;;;17.30;45.89
34921;BME280;21128;50.016;20.002;2023-04-15T10:54:14;97875.03;;;17.29;45.19
34921;BME280;21128;50.016;20.002;2023-04-15T10:56:50;97869.18;;;17.65;47.01
34921;BME280;21128;50.016;20.002;2023-04-15T10:59:17;97867.11;;;17.81;45.51
34921;BME280;21128;50.016;20.002;2023-04-15T11:01:56;97867.77;;;17.63;45.40
34921;BME280;21128;50.016;20.002;2023-04-15T11:04:51;97864.64;;;17.86;46.00
34921;BME280;21128;50.016;20.002;2023-04-15T11:07:35;97867.08;;;17.87;45.96
34921;BME280;21128;50.016;20.002;2023-04-15T11:12:39;97864.03;;;17.12;44.06
34921;BME280;21128;50.016;20.002;2023-04-15T11:17:58;97878.70;;;16.16;45.41
34921;BME280;21128;50.016;20.002;2023-04-15T11:20:25;97880.70;;;16.00;46.02
34921;BME280;21128;50.016;20.002;2023-04-15T11:22:53;97881.08;;;15.97;46.42
34921;BME280;21128;50.016;20.002;2023-04-15T11:25:28;97877.87;;;16.09;46.54
34921;BME280;21128;50.016;20.002;2023-04-15T11:27:57;97891.97;;;16.29;46.98
34921;BME280;21128;50.016;20.002;2023-04-15T11:30:26;97881.13;;;16.11;46.42
34921;BME280;21128;50.016;20.002;2023-04-15T11:32:58;97880.27;;;15.97;46.53
34921;BME280;21128;50.016;20.002;2023-04-15T11:35:26;97878.23;;;15.92;46.40
34921;BME280;21128;50.016;20.002;2023-04-15T11:37:54;97883.09;;;15.82;46.84
34921;BME280;21128;50.016;20.002;2023-04-15T11:40:27;97887.75;;;15.73;46.53
34921;BME280;21128;50.016;20.002;2023-04-15T11:43:18;97885.10;;;15.80;47.47
34921;BME280;21128;50.016;20.002;2023-04-15T11:45:54;97881.47;;;15.88;47.53
34921;BME280;21128;50.016;20.002;2023-04-15T11:48:26;97889.81;;;15.85;47.18
34921;BME280;21128;50.016;20.002;2023-04-15T11:51:05;97893.86;;;15.81;47.58
34921;BME280;21128;50.016;20.002;2023-04-15T11:53:48;97894.23;;;15.71;47.83
34921;BME280;21128;50.016;20.002;2023-04-15T11:56:17;97894.44;;;15.69;47.64
34921;BME280;21128;50.016;20.002;2023-04-15T11:58:57;97903.37;;;15.62;47.42
34921;BME280;21128;50.016;20.002;2023-04-15T12:01:35;97899.17;;;15.39;47.73
34921;BME280;21128;50.016;20.002;2023-04-15T12:06:39;97900.81;;;15.12;48.13
34921;BME280;21128;50.016;20.002;2023-04-15T12:09:13;97905.48;;;15.10;48.51
34921;BME280;21128;50.016;20.002;2023-04-15T12:11:45;97894.34;;;15.15;48.59
34921;BME280;21128;50.016;20.002;2023-04-15T12:14:32;97895.51;;;15.40;48.62
34921;BME280;21128;50.016;20.002;2023-04-15T12:17:04;97902.55;;;15.61;48.07
34921;BME280;21128;50.016;20.002;2023-04-15T12:19:40;97896.47;;;15.67;48.23
34921;BME280;21128;50.016;20.002;2023-04-15T12:22:09;97897.73;;;15.78;47.84
34921;BME280;21128;50.016;20.002;2023-04-15T12:24:37;97897.33;;;15.74;47.58
34921;BME280;21128;50.016;20.002;2023-04-15T12:29:33;97909.17;;;15.85;48.36
34921;BME280;21128;50.016;20.002;2023-04-15T12:32:15;97901.64;;;15.89;48.38
34921;BME280;21128;50.016;20.002;2023-04-15T12:34:52;97908.80;;;15.95;48.42
34921;BME280;21128;50.016;20.002;2023-04-15T12:37:23;97905.92;;;15.83;47.41
34921;BME280;21128;50.016;20.002;2023-04-15T12:39:51;97901.81;;;15.74;47.58
34921;BME280;21128;50.016;20.002;2023-04-15T12:42:19;97911.48;;;15.60;47.88
34921;BME280;21128;50.016;20.002;2023-04-15T12:44:48;97903.70;;;15.52;47.37
34921;BME280;21128;50.016;20.002;2023-04-15T12:47:15;97905.66;;;15.37;47.43
34921;BME280;21128;50.016;20.002;2023-04-15T12:49:42;97909.00;;;15.17;47.74
34921;BME280;21128;50.016;20.002;2023-04-15T12:52:09;97910.56;;;15.05;47.77
34921;BME280;21128;50.016;20.002;2023-04-15T12:54:36;97910.25;;;14.93;48.19
34921;BME280;21128;50.016;20.002;2023-04-15T12:57:03;97916.70;;;14.84;48.57
34921;BME280;21128;50.016;20.002;2023-04-15T12:59:30;97905.86;;;14.79;48.75
34921;BME280;21128;50.016;20.002;2023-04-15T13:01:57;97908.48;;;14.73;49.17
34921;BME280;21128;50.016;20.002;2023-04-15T13:04:26;97908.64;;;14.71;49.13
34921;BME280;21128;50.016;20.002;2023-04-15T13:06:56;97911.94;;;14.73;49.71
34921;BME280;21128;50.016;20.002;2023-04-15T13:09:23;97914.19;;;14.76;49.77
34921;BME280;21128;50.016;20.002;2023-04-15T13:11:50;97908.51;;;14.79;49.98
34921;BME280;21128;50.016;20.002;2023-04-15T13:14:18;97907.27;;;14.75;49.57
34921;BME280;21128;50.016;20.002;2023-04-15T13:16:45;97904.23;;;14.78;50.02